Portada
METAR-TAF:

METAR-TAF

Aeroports :

Diourbel, Senegal

latitud: 14-39N, longitud: 016-14W, altitud: 7 m

Observació

L'informe es va fer fa 2 hores i 59 minuts, a les 12:00 UTC
Vent 4 kt del Nord-Oest
Temperatura 33°C
Humitat 63%
Pressió 1014 hPa
Visibilitat 10 km o més
Escasses núvols a una alçada de 1500 ft

METAR: GOOD 081200Z 32004KT 9999 FEW015 33/25 Q1014

Hora: 14:59 (14:59 UTC)


TAF: manca

Observacions i pronòstics meteorològics de més de 4000 aeroports (METAR i TAF).

Les estacions disponibles són els punts grocs i vermells al mapa.

Posi el ratolí al punt desitjat per veure el nom de l'estació.

Feu clic per veure les observacions i els pronòstics meteorològics.

Per canviar el mapa: feu clic els botons verds amb una creu de color negre per apropar; al botó verd amb un guió per allunyar la imatge; o en les fletxes verdes per a mapes adjacents.


METAR-TAF: